sensor_id;sensor_type;location;lat;lon;timestamp;P1;durP1;ratioP1;P2;durP2;ratioP2
14088;SDS011;7120;52.890;6.040;2023-07-16T00:02:21;7.17;;;2.77;;
14088;SDS011;7120;52.890;6.040;2023-07-16T00:04:46;7.23;;;2.70;;
14088;SDS011;7120;52.890;6.040;2023-07-16T00:07:12;5.60;;;2.37;;
14088;SDS011;7120;52.890;6.040;2023-07-16T00:09:37;4.00;;;2.00;;
14088;SDS011;7120;52.890;6.040;2023-07-16T00:12:03;4.73;;;2.43;;
14088;SDS011;7120;52.890;6.040;2023-07-16T00:14:28;6.67;;;2.63;;
14088;SDS011;7120;52.890;6.040;2023-07-16T00:16:54;6.00;;;1.90;;
14088;SDS011;7120;52.890;6.040;2023-07-16T00:19:19;6.07;;;2.30;;
14088;SDS011;7120;52.890;6.040;2023-07-16T00:21:45;4.27;;;2.30;;
14088;SDS011;7120;52.890;6.040;2023-07-16T00:24:10;4.00;;;2.43;;
14088;SDS011;7120;52.890;6.040;2023-07-16T00:26:35;4.10;;;2.23;;
14088;SDS011;7120;52.890;6.040;2023-07-16T00:29:01;7.67;;;2.67;;
14088;SDS011;7120;52.890;6.040;2023-07-16T00:31:26;5.83;;;2.50;;
14088;SDS011;7120;52.890;6.040;2023-07-16T00:33:51;3.53;;;2.23;;
14088;SDS011;7120;52.890;6.040;2023-07-16T00:36:17;7.20;;;2.77;;
14088;SDS011;7120;52.890;6.040;2023-07-16T00:38:42;6.10;;;2.40;;
14088;SDS011;7120;52.890;6.040;2023-07-16T00:41:08;4.00;;;2.77;;
14088;SDS011;7120;52.890;6.040;2023-07-16T00:43:33;4.27;;;2.10;;
14088;SDS011;7120;52.890;6.040;2023-07-16T00:45:58;4.53;;;2.40;;
14088;SDS011;7120;52.890;6.040;2023-07-16T00:48:24;4.47;;;2.33;;
14088;SDS011;7120;52.890;6.040;2023-07-16T00:50:50;8.87;;;2.53;;
14088;SDS011;7120;52.890;6.040;2023-07-16T00:53:17;5.53;;;3.00;;
14088;SDS011;7120;52.890;6.040;2023-07-16T00:55:42;8.73;;;2.73;;
14088;SDS011;7120;52.890;6.040;2023-07-16T00:58:08;7.37;;;2.00;;
14088;SDS011;7120;52.890;6.040;2023-07-16T01:00:37;9.53;;;2.87;;
14088;SDS011;7120;52.890;6.040;2023-07-16T01:03:07;5.10;;;2.50;;
14088;SDS011;7120;52.890;6.040;2023-07-16T01:05:43;4.70;;;2.30;;
14088;SDS011;7120;52.890;6.040;2023-07-16T01:08:14;5.90;;;2.40;;
14088;SDS011;7120;52.890;6.040;2023-07-16T01:10:45;2.27;;;1.80;;
14088;SDS011;7120;52.890;6.040;2023-07-16T01:13:11;6.13;;;2.50;;
14088;SDS011;7120;52.890;6.040;2023-07-16T01:15:36;3.97;;;2.13;;
14088;SDS011;7120;52.890;6.040;2023-07-16T01:18:03;3.77;;;2.10;;
14088;SDS011;7120;52.890;6.040;2023-07-16T01:20:30;2.90;;;1.80;;
14088;SDS011;7120;52.890;6.040;2023-07-16T01:31:41;4.47;;;2.20;;
14088;SDS011;7120;52.890;6.040;2023-07-16T01:34:08;2.90;;;2.00;;
14088;SDS011;7120;52.890;6.040;2023-07-16T01:36:35;5.33;;;2.30;;
14088;SDS011;7120;52.890;6.040;2023-07-16T01:39:02;6.30;;;2.23;;
14088;SDS011;7120;52.890;6.040;2023-07-16T01:41:28;6.17;;;2.33;;
14088;SDS011;7120;52.890;6.040;2023-07-16T01:43:53;5.63;;;2.30;;
14088;SDS011;7120;52.890;6.040;2023-07-16T01:46:18;4.63;;;2.10;;
14088;SDS011;7120;52.890;6.040;2023-07-16T01:48:44;6.00;;;2.40;;
14088;SDS011;7120;52.890;6.040;2023-07-16T01:51:09;5.80;;;2.40;;
14088;SDS011;7120;52.890;6.040;2023-07-16T01:53:38;5.77;;;2.63;;
14088;SDS011;7120;52.890;6.040;2023-07-16T01:56:04;5.30;;;2.50;;
14088;SDS011;7120;52.890;6.040;2023-07-16T01:58:29;4.93;;;2.73;;
14088;SDS011;7120;52.890;6.040;2023-07-16T02:00:55;4.83;;;2.80;;
14088;SDS011;7120;52.890;6.040;2023-07-16T02:03:20;4.80;;;2.87;;
14088;SDS011;7120;52.890;6.040;2023-07-16T02:05:45;3.77;;;2.50;;
14088;SDS011;7120;52.890;6.040;2023-07-16T02:08:11;3.87;;;2.80;;
14088;SDS011;7120;52.890;6.040;2023-07-16T02:10:36;5.87;;;2.97;;
14088;SDS011;7120;52.890;6.040;2023-07-16T02:13:01;4.50;;;2.53;;
14088;SDS011;7120;52.890;6.040;2023-07-16T02:15:27;4.90;;;2.90;;
14088;SDS011;7120;52.890;6.040;2023-07-16T02:17:52;4.07;;;2.67;;
14088;SDS011;7120;52.890;6.040;2023-07-16T02:20:18;5.17;;;3.20;;
14088;SDS011;7120;52.890;6.040;2023-07-16T02:22:43;5.27;;;3.00;;
14088;SDS011;7120;52.890;6.040;2023-07-16T02:25:08;4.70;;;3.07;;
14088;SDS011;7120;52.890;6.040;2023-07-16T02:27:34;5.17;;;2.90;;
14088;SDS011;7120;52.890;6.040;2023-07-16T02:29:59;6.00;;;3.20;;
14088;SDS011;7120;52.890;6.040;2023-07-16T02:32:25;6.13;;;3.10;;
14088;SDS011;7120;52.890;6.040;2023-07-16T02:34:50;6.03;;;3.37;;
14088;SDS011;7120;52.890;6.040;2023-07-16T02:37:16;5.03;;;3.27;;
14088;SDS011;7120;52.890;6.040;2023-07-16T02:39:42;4.53;;;2.87;;
14088;SDS011;7120;52.890;6.040;2023-07-16T02:42:10;5.80;;;3.20;;
14088;SDS011;7120;52.890;6.040;2023-07-16T02:44:35;5.17;;;2.93;;
14088;SDS011;7120;52.890;6.040;2023-07-16T02:47:06;7.33;;;3.80;;
14088;SDS011;7120;52.890;6.040;2023-07-16T02:49:32;4.90;;;2.70;;
14088;SDS011;7120;52.890;6.040;2023-07-16T02:51:57;4.97;;;3.20;;
14088;SDS011;7120;52.890;6.040;2023-07-16T02:54:23;5.17;;;3.70;;
14088;SDS011;7120;52.890;6.040;2023-07-16T02:56:48;5.43;;;3.40;;
14088;SDS011;7120;52.890;6.040;2023-07-16T02:59:14;5.87;;;3.30;;
14088;SDS011;7120;52.890;6.040;2023-07-16T03:01:39;5.40;;;3.23;;
14088;SDS011;7120;52.890;6.040;2023-07-16T03:04:04;4.60;;;2.90;;
14088;SDS011;7120;52.890;6.040;2023-07-16T03:06:30;6.27;;;3.10;;
14088;SDS011;7120;52.890;6.040;2023-07-16T03:08:55;4.70;;;3.40;;
14088;SDS011;7120;52.890;6.040;2023-07-16T03:11:20;6.47;;;3.33;;
14088;SDS011;7120;52.890;6.040;2023-07-16T03:13:46;6.30;;;3.77;;
14088;SDS011;7120;52.890;6.040;2023-07-16T03:16:11;6.40;;;3.33;;
14088;SDS011;7120;52.890;6.040;2023-07-16T03:18:37;4.77;;;3.07;;
14088;SDS011;7120;52.890;6.040;2023-07-16T03:21:02;6.37;;;3.50;;
14088;SDS011;7120;52.890;6.040;2023-07-16T03:23:27;5.53;;;3.60;;
14088;SDS011;7120;52.890;6.040;2023-07-16T03:25:53;6.80;;;3.73;;
14088;SDS011;7120;52.890;6.040;2023-07-16T03:28:18;6.20;;;3.50;;
14088;SDS011;7120;52.890;6.040;2023-07-16T03:30:47;8.33;;;4.57;;
14088;SDS011;7120;52.890;6.040;2023-07-16T03:33:14;6.57;;;3.80;;
14088;SDS011;7120;52.890;6.040;2023-07-16T03:35:41;7.33;;;4.00;;
14088;SDS011;7120;52.890;6.040;2023-07-16T03:38:07;6.50;;;3.83;;
14088;SDS011;7120;52.890;6.040;2023-07-16T03:40:33;6.07;;;4.13;;
14088;SDS011;7120;52.890;6.040;2023-07-16T03:42:58;6.23;;;4.00;;
14088;SDS011;7120;52.890;6.040;2023-07-16T03:45:23;5.73;;;3.47;;
14088;SDS011;7120;52.890;6.040;2023-07-16T03:47:49;6.57;;;4.50;;
14088;SDS011;7120;52.890;6.040;2023-07-16T03:50:14;8.00;;;4.37;;
14088;SDS011;7120;52.890;6.040;2023-07-16T03:52:40;10.63;;;4.33;;
14088;SDS011;7120;52.890;6.040;2023-07-16T03:55:05;4.80;;;3.87;;
14088;SDS011;7120;52.890;6.040;2023-07-16T03:57:32;4.60;;;4.00;;
14088;SDS011;7120;52.890;6.040;2023-07-16T03:59:57;6.80;;;4.43;;
14088;SDS011;7120;52.890;6.040;2023-07-16T04:02:23;7.97;;;4.17;;
14088;SDS011;7120;52.890;6.040;2023-07-16T04:04:49;9.43;;;4.70;;
14088;SDS011;7120;52.890;6.040;2023-07-16T04:07:15;6.17;;;4.37;;
14088;SDS011;7120;52.890;6.040;2023-07-16T04:09:40;6.13;;;4.30;;
14088;SDS011;7120;52.890;6.040;2023-07-16T04:12:06;6.33;;;4.50;;
14088;SDS011;7120;52.890;6.040;2023-07-16T04:14:32;8.70;;;4.40;;
14088;SDS011;7120;52.890;6.040;2023-07-16T04:16:57;8.63;;;4.60;;
14088;SDS011;7120;52.890;6.040;2023-07-16T04:19:23;6.97;;;4.37;;
14088;SDS011;7120;52.890;6.040;2023-07-16T04:21:48;5.33;;;4.10;;
14088;SDS011;7120;52.890;6.040;2023-07-16T04:24:14;7.37;;;4.23;;
14088;SDS011;7120;52.890;6.040;2023-07-16T04:26:39;8.40;;;4.83;;
14088;SDS011;7120;52.890;6.040;2023-07-16T04:29:04;9.67;;;5.13;;
14088;SDS011;7120;52.890;6.040;2023-07-16T04:31:30;7.27;;;4.70;;
14088;SDS011;7120;52.890;6.040;2023-07-16T04:33:55;6.73;;;4.47;;
14088;SDS011;7120;52.890;6.040;2023-07-16T04:36:21;7.20;;;4.10;;
14088;SDS011;7120;52.890;6.040;2023-07-16T04:38:46;7.30;;;4.47;;
14088;SDS011;7120;52.890;6.040;2023-07-16T04:41:11;6.90;;;4.67;;
14088;SDS011;7120;52.890;6.040;2023-07-16T04:43:38;8.87;;;4.80;;
14088;SDS011;7120;52.890;6.040;2023-07-16T04:46:03;7.70;;;5.20;;
14088;SDS011;7120;52.890;6.040;2023-07-16T04:48:29;5.43;;;3.93;;
14088;SDS011;7120;52.890;6.040;2023-07-16T04:50:54;7.10;;;5.07;;
14088;SDS011;7120;52.890;6.040;2023-07-16T04:53:19;7.83;;;4.53;;
14088;SDS011;7120;52.890;6.040;2023-07-16T04:55:46;8.47;;;4.00;;
14088;SDS011;7120;52.890;6.040;2023-07-16T04:58:11;8.70;;;4.10;;
14088;SDS011;7120;52.890;6.040;2023-07-16T05:00:37;5.73;;;3.80;;
14088;SDS011;7120;52.890;6.040;2023-07-16T05:03:02;5.43;;;4.07;;
14088;SDS011;7120;52.890;6.040;2023-07-16T05:05:28;5.30;;;3.53;;
14088;SDS011;7120;52.890;6.040;2023-07-16T05:07:53;6.30;;;3.87;;
14088;SDS011;7120;52.890;6.040;2023-07-16T05:10:19;5.80;;;3.60;;
14088;SDS011;7120;52.890;6.040;2023-07-16T05:12:44;5.67;;;3.60;;
14088;SDS011;7120;52.890;6.040;2023-07-16T05:15:10;6.40;;;3.53;;
14088;SDS011;7120;52.890;6.040;2023-07-16T05:17:35;5.70;;;3.40;;
14088;SDS011;7120;52.890;6.040;2023-07-16T05:20:01;5.20;;;3.43;;
14088;SDS011;7120;52.890;6.040;2023-07-16T05:22:26;4.13;;;3.00;;
14088;SDS011;7120;52.890;6.040;2023-07-16T05:24:51;4.40;;;3.83;;
14088;SDS011;7120;52.890;6.040;2023-07-16T05:27:17;5.43;;;3.40;;
14088;SDS011;7120;52.890;6.040;2023-07-16T05:29:42;6.10;;;3.23;;
14088;SDS011;7120;52.890;6.040;2023-07-16T05:32:07;7.93;;;3.87;;
14088;SDS011;7120;52.890;6.040;2023-07-16T05:34:33;5.23;;;3.80;;
14088;SDS011;7120;52.890;6.040;2023-07-16T05:36:59;6.50;;;4.00;;
14088;SDS011;7120;52.890;6.040;2023-07-16T05:39:24;6.77;;;3.80;;
14088;SDS011;7120;52.890;6.040;2023-07-16T05:41:50;6.47;;;3.73;;
14088;SDS011;7120;52.890;6.040;2023-07-16T05:44:15;5.00;;;3.53;;
14088;SDS011;7120;52.890;6.040;2023-07-16T05:46:41;7.57;;;4.00;;
14088;SDS011;7120;52.890;6.040;2023-07-16T05:49:06;6.73;;;3.93;;
14088;SDS011;7120;52.890;6.040;2023-07-16T05:51:31;5.83;;;4.13;;
14088;SDS011;7120;52.890;6.040;2023-07-16T05:53:57;7.17;;;3.87;;
14088;SDS011;7120;52.890;6.040;2023-07-16T05:56:22;6.97;;;3.80;;
14088;SDS011;7120;52.890;6.040;2023-07-16T05:58:48;7.40;;;4.00;;
14088;SDS011;7120;52.890;6.040;2023-07-16T06:01:13;10.03;;;4.70;;
14088;SDS011;7120;52.890;6.040;2023-07-16T06:03:38;7.67;;;4.53;;
14088;SDS011;7120;52.890;6.040;2023-07-16T06:06:04;5.03;;;3.90;;
14088;SDS011;7120;52.890;6.040;2023-07-16T06:08:29;6.67;;;4.00;;
14088;SDS011;7120;52.890;6.040;2023-07-16T06:10:55;5.13;;;4.10;;
14088;SDS011;7120;52.890;6.040;2023-07-16T06:13:20;5.43;;;4.53;;
14088;SDS011;7120;52.890;6.040;2023-07-16T06:15:46;7.63;;;4.47;;
14088;SDS011;7120;52.890;6.040;2023-07-16T06:18:12;6.53;;;4.80;;
14088;SDS011;7120;52.890;6.040;2023-07-16T06:20:38;6.57;;;4.37;;
14088;SDS011;7120;52.890;6.040;2023-07-16T06:23:03;8.00;;;4.20;;
14088;SDS011;7120;52.890;6.040;2023-07-16T06:25:29;7.43;;;4.17;;
14088;SDS011;7120;52.890;6.040;2023-07-16T06:27:54;5.17;;;4.30;;
14088;SDS011;7120;52.890;6.040;2023-07-16T06:30:19;7.17;;;4.53;;
14088;SDS011;7120;52.890;6.040;2023-07-16T06:32:45;7.07;;;4.13;;
14088;SDS011;7120;52.890;6.040;2023-07-16T06:35:10;7.03;;;4.77;;
14088;SDS011;7120;52.890;6.040;2023-07-16T06:37:36;5.47;;;4.57;;
14088;SDS011;7120;52.890;6.040;2023-07-16T06:40:01;6.73;;;4.60;;
14088;SDS011;7120;52.890;6.040;2023-07-16T06:42:28;6.60;;;4.10;;
14088;SDS011;7120;52.890;6.040;2023-07-16T06:44:53;5.83;;;4.60;;
14088;SDS011;7120;52.890;6.040;2023-07-16T06:47:19;6.00;;;4.70;;
14088;SDS011;7120;52.890;6.040;2023-07-16T06:49:44;6.93;;;4.60;;
14088;SDS011;7120;52.890;6.040;2023-07-16T06:52:18;7.43;;;4.80;;
14088;SDS011;7120;52.890;6.040;2023-07-16T06:54:47;7.30;;;4.97;;
14088;SDS011;7120;52.890;6.040;2023-07-16T06:57:13;6.43;;;4.43;;
14088;SDS011;7120;52.890;6.040;2023-07-16T06:59:38;7.00;;;4.70;;
14088;SDS011;7120;52.890;6.040;2023-07-16T07:02:04;6.60;;;4.30;;
14088;SDS011;7120;52.890;6.040;2023-07-16T07:04:31;5.10;;;4.37;;
14088;SDS011;7120;52.890;6.040;2023-07-16T07:06:56;6.93;;;4.23;;
14088;SDS011;7120;52.890;6.040;2023-07-16T07:09:21;7.07;;;4.10;;
14088;SDS011;7120;52.890;6.040;2023-07-16T07:11:47;5.60;;;4.20;;
14088;SDS011;7120;52.890;6.040;2023-07-16T07:14:12;5.80;;;4.43;;
14088;SDS011;7120;52.890;6.040;2023-07-16T07:16:37;5.97;;;4.27;;
14088;SDS011;7120;52.890;6.040;2023-07-16T07:19:05;6.60;;;4.50;;
14088;SDS011;7120;52.890;6.040;2023-07-16T07:21:30;5.80;;;4.57;;
14088;SDS011;7120;52.890;6.040;2023-07-16T07:23:56;7.30;;;4.70;;
14088;SDS011;7120;52.890;6.040;2023-07-16T07:26:21;7.33;;;4.30;;
14088;SDS011;7120;52.890;6.040;2023-07-16T07:28:46;6.20;;;4.13;;
14088;SDS011;7120;52.890;6.040;2023-07-16T07:31:12;4.30;;;3.90;;
14088;SDS011;7120;52.890;6.040;2023-07-16T07:33:37;8.50;;;4.37;;
14088;SDS011;7120;52.890;6.040;2023-07-16T07:36:03;7.80;;;4.33;;
14088;SDS011;7120;52.890;6.040;2023-07-16T07:38:28;6.57;;;4.33;;
14088;SDS011;7120;52.890;6.040;2023-07-16T07:40:53;4.37;;;3.97;;
14088;SDS011;7120;52.890;6.040;2023-07-16T07:43:19;6.03;;;4.20;;
14088;SDS011;7120;52.890;6.040;2023-07-16T07:45:44;5.53;;;4.23;;
14088;SDS011;7120;52.890;6.040;2023-07-16T07:48:10;5.00;;;4.03;;
14088;SDS011;7120;52.890;6.040;2023-07-16T07:50:35;6.70;;;4.17;;
14088;SDS011;7120;52.890;6.040;2023-07-16T07:53:00;5.37;;;4.43;;
14088;SDS011;7120;52.890;6.040;2023-07-16T07:55:26;10.60;;;4.33;;
14088;SDS011;7120;52.890;6.040;2023-07-16T07:57:51;7.10;;;4.50;;
14088;SDS011;7120;52.890;6.040;2023-07-16T08:00:17;4.73;;;4.23;;
14088;SDS011;7120;52.890;6.040;2023-07-16T08:02:42;6.43;;;4.43;;
14088;SDS011;7120;52.890;6.040;2023-07-16T08:05:08;6.70;;;4.33;;
14088;SDS011;7120;52.890;6.040;2023-07-16T08:07:33;6.83;;;4.60;;
14088;SDS011;7120;52.890;6.040;2023-07-16T08:09:59;6.47;;;4.77;;
14088;SDS011;7120;52.890;6.040;2023-07-16T08:12:24;4.80;;;4.30;;
14088;SDS011;7120;52.890;6.040;2023-07-16T08:14:50;5.73;;;4.60;;
14088;SDS011;7120;52.890;6.040;2023-07-16T08:17:15;7.07;;;4.40;;
14088;SDS011;7120;52.890;6.040;2023-07-16T08:19:40;6.60;;;5.20;;
14088;SDS011;7120;52.890;6.040;2023-07-16T08:22:06;6.80;;;4.23;;
14088;SDS011;7120;52.890;6.040;2023-07-16T08:24:31;5.37;;;3.97;;
14088;SDS011;7120;52.890;6.040;2023-07-16T08:26:57;7.43;;;4.53;;
14088;SDS011;7120;52.890;6.040;2023-07-16T08:29:22;5.17;;;4.13;;
14088;SDS011;7120;52.890;6.040;2023-07-16T08:31:47;6.60;;;4.27;;
14088;SDS011;7120;52.890;6.040;2023-07-16T08:34:13;6.97;;;4.67;;
14088;SDS011;7120;52.890;6.040;2023-07-16T08:36:38;5.20;;;4.00;;
14088;SDS011;7120;52.890;6.040;2023-07-16T08:39:03;6.33;;;3.97;;
14088;SDS011;7120;52.890;6.040;2023-07-16T08:41:30;9.20;;;4.73;;
14088;SDS011;7120;52.890;6.040;2023-07-16T08:43:56;6.53;;;3.97;;
14088;SDS011;7120;52.890;6.040;2023-07-16T08:46:22;4.13;;;3.60;;
14088;SDS011;7120;52.890;6.040;2023-07-16T08:48:47;4.83;;;3.93;;
14088;SDS011;7120;52.890;6.040;2023-07-16T08:51:14;6.47;;;4.00;;
14088;SDS011;7120;52.890;6.040;2023-07-16T08:53:41;6.40;;;4.20;;
14088;SDS011;7120;52.890;6.040;2023-07-16T08:56:07;6.27;;;4.40;;
14088;SDS011;7120;52.890;6.040;2023-07-16T08:58:32;6.93;;;4.57;;
14088;SDS011;7120;52.890;6.040;2023-07-16T09:00:58;5.73;;;4.43;;
14088;SDS011;7120;52.890;6.040;2023-07-16T09:03:25;5.50;;;3.97;;
14088;SDS011;7120;52.890;6.040;2023-07-16T09:05:51;7.37;;;4.13;;
14088;SDS011;7120;52.890;6.040;2023-07-16T09:08:16;6.30;;;3.77;;
14088;SDS011;7120;52.890;6.040;2023-07-16T09:10:42;4.33;;;3.73;;
14088;SDS011;7120;52.890;6.040;2023-07-16T09:13:07;5.13;;;4.00;;
14088;SDS011;7120;52.890;6.040;2023-07-16T09:15:33;4.90;;;3.80;;
14088;SDS011;7120;52.890;6.040;2023-07-16T09:17:59;5.77;;;4.13;;
14088;SDS011;7120;52.890;6.040;2023-07-16T09:20:25;7.00;;;4.33;;
14088;SDS011;7120;52.890;6.040;2023-07-16T09:22:53;4.30;;;3.27;;
14088;SDS011;7120;52.890;6.040;2023-07-16T09:25:24;4.57;;;4.10;;
14088;SDS011;7120;52.890;6.040;2023-07-16T09:27:53;5.93;;;4.33;;
14088;SDS011;7120;52.890;6.040;2023-07-16T09:30:19;6.40;;;4.20;;
14088;SDS011;7120;52.890;6.040;2023-07-16T09:32:45;5.13;;;3.70;;
14088;SDS011;7120;52.890;6.040;2023-07-16T09:35:14;7.57;;;4.40;;
14088;SDS011;7120;52.890;6.040;2023-07-16T09:37:40;5.40;;;4.10;;
14088;SDS011;7120;52.890;6.040;2023-07-16T09:40:07;8.27;;;4.53;;
14088;SDS011;7120;52.890;6.040;2023-07-16T09:42:38;6.73;;;4.33;;
14088;SDS011;7120;52.890;6.040;2023-07-16T09:45:07;6.03;;;4.67;;
14088;SDS011;7120;52.890;6.040;2023-07-16T09:47:37;7.03;;;4.57;;
14088;SDS011;7120;52.890;6.040;2023-07-16T09:50:03;9.13;;;4.60;;
14088;SDS011;7120;52.890;6.040;2023-07-16T09:52:29;5.23;;;4.10;;
14088;SDS011;7120;52.890;6.040;2023-07-16T09:54:57;4.27;;;3.57;;
14088;SDS011;7120;52.890;6.040;2023-07-16T09:57:26;4.57;;;3.80;;
14088;SDS011;7120;52.890;6.040;2023-07-16T09:59:56;4.63;;;4.13;;
14088;SDS011;7120;52.890;6.040;2023-07-16T10:02:23;4.17;;;3.53;;
14088;SDS011;7120;52.890;6.040;2023-07-16T10:04:49;6.03;;;4.50;;
14088;SDS011;7120;52.890;6.040;2023-07-16T10:07:21;5.73;;;4.17;;
14088;SDS011;7120;52.890;6.040;2023-07-16T10:09:52;6.17;;;4.20;;
14088;SDS011;7120;52.890;6.040;2023-07-16T10:12:21;5.73;;;4.10;;
14088;SDS011;7120;52.890;6.040;2023-07-16T10:14:48;5.83;;;4.00;;
14088;SDS011;7120;52.890;6.040;2023-07-16T10:17:24;6.47;;;3.77;;
14088;SDS011;7120;52.890;6.040;2023-07-16T10:20:09;4.17;;;3.70;;
14088;SDS011;7120;52.890;6.040;2023-07-16T10:22:41;4.40;;;3.73;;
14088;SDS011;7120;52.890;6.040;2023-07-16T10:25:10;6.23;;;4.23;;
14088;SDS011;7120;52.890;6.040;2023-07-16T10:27:48;5.40;;;4.10;;
14088;SDS011;7120;52.890;6.040;2023-07-16T10:30:15;5.83;;;4.23;;
14088;SDS011;7120;52.890;6.040;2023-07-16T10:32:41;4.50;;;3.73;;
14088;SDS011;7120;52.890;6.040;2023-07-16T10:35:07;5.10;;;3.90;;
14088;SDS011;7120;52.890;6.040;2023-07-16T10:37:36;4.20;;;3.40;;
14088;SDS011;7120;52.890;6.040;2023-07-16T10:40:03;5.27;;;3.10;;
14088;SDS011;7120;52.890;6.040;2023-07-16T10:42:30;5.27;;;3.60;;
14088;SDS011;7120;52.890;6.040;2023-07-16T10:45:03;4.87;;;3.60;;
14088;SDS011;7120;52.890;6.040;2023-07-16T10:47:33;4.07;;;3.40;;
14088;SDS011;7120;52.890;6.040;2023-07-16T10:50:00;4.40;;;3.50;;
14088;SDS011;7120;52.890;6.040;2023-07-16T10:52:28;6.53;;;3.53;;
14088;SDS011;7120;52.890;6.040;2023-07-16T10:54:53;4.97;;;3.90;;
14088;SDS011;7120;52.890;6.040;2023-07-16T10:57:26;6.80;;;3.93;;
14088;SDS011;7120;52.890;6.040;2023-07-16T10:59:53;4.40;;;3.80;;
14088;SDS011;7120;52.890;6.040;2023-07-16T11:02:23;4.43;;;3.63;;
14088;SDS011;7120;52.890;6.040;2023-07-16T11:04:49;4.30;;;3.40;;
14088;SDS011;7120;52.890;6.040;2023-07-16T11:07:18;3.70;;;3.33;;
14088;SDS011;7120;52.890;6.040;2023-07-16T11:09:47;5.60;;;4.03;;
14088;SDS011;7120;52.890;6.040;2023-07-16T11:12:15;5.77;;;4.37;;
14088;SDS011;7120;52.890;6.040;2023-07-16T11:14:45;5.77;;;4.43;;
14088;SDS011;7120;52.890;6.040;2023-07-16T11:17:13;6.50;;;4.37;;
14088;SDS011;7120;52.890;6.040;2023-07-16T11:19:39;5.53;;;3.87;;
14088;SDS011;7120;52.890;6.040;2023-07-16T11:22:07;6.97;;;4.73;;
14088;SDS011;7120;52.890;6.040;2023-07-16T11:24:51;5.70;;;4.30;;
14088;SDS011;7120;52.890;6.040;2023-07-16T11:27:21;5.57;;;4.60;;
14088;SDS011;7120;52.890;6.040;2023-07-16T11:29:52;5.10;;;4.00;;
14088;SDS011;7120;52.890;6.040;2023-07-16T11:35:18;6.07;;;4.93;;
14088;SDS011;7120;52.890;6.040;2023-07-16T11:37:44;7.93;;;4.40;;
14088;SDS011;7120;52.890;6.040;2023-07-16T11:40:14;7.67;;;4.60;;
14088;SDS011;7120;52.890;6.040;2023-07-16T11:42:41;4.50;;;3.97;;
14088;SDS011;7120;52.890;6.040;2023-07-16T11:45:16;5.87;;;4.30;;
14088;SDS011;7120;52.890;6.040;2023-07-16T11:47:42;5.23;;;4.13;;
14088;SDS011;7120;52.890;6.040;2023-07-16T11:50:08;5.90;;;4.70;;
14088;SDS011;7120;52.890;6.040;2023-07-16T11:52:33;5.50;;;4.57;;
14088;SDS011;7120;52.890;6.040;2023-07-16T11:54:59;5.70;;;4.83;;
14088;SDS011;7120;52.890;6.040;2023-07-16T11:57:25;9.20;;;4.60;;
14088;SDS011;7120;52.890;6.040;2023-07-16T11:59:51;5.40;;;4.30;;
14088;SDS011;7120;52.890;6.040;2023-07-16T12:02:17;6.03;;;3.87;;
14088;SDS011;7120;52.890;6.040;2023-07-16T12:04:42;4.00;;;3.57;;
14088;SDS011;7120;52.890;6.040;2023-07-16T12:07:08;6.40;;;4.17;;
14088;SDS011;7120;52.890;6.040;2023-07-16T12:09:34;4.77;;;3.93;;
14088;SDS011;7120;52.890;6.040;2023-07-16T12:11:59;5.87;;;3.80;;
14088;SDS011;7120;52.890;6.040;2023-07-16T12:14:25;5.03;;;3.80;;
14088;SDS011;7120;52.890;6.040;2023-07-16T12:16:51;5.77;;;3.80;;
14088;SDS011;7120;52.890;6.040;2023-07-16T12:19:16;4.27;;;3.60;;
14088;SDS011;7120;52.890;6.040;2023-07-16T12:21:42;3.90;;;3.40;;
14088;SDS011;7120;52.890;6.040;2023-07-16T12:24:07;5.37;;;4.00;;
14088;SDS011;7120;52.890;6.040;2023-07-16T12:26:33;6.80;;;4.00;;
14088;SDS011;7120;52.890;6.040;2023-07-16T12:29:00;5.33;;;3.73;;
14088;SDS011;7120;52.890;6.040;2023-07-16T12:31:32;5.50;;;4.20;;
14088;SDS011;7120;52.890;6.040;2023-07-16T12:33:58;5.23;;;3.80;;
14088;SDS011;7120;52.890;6.040;2023-07-16T12:36:24;7.73;;;3.93;;
14088;SDS011;7120;52.890;6.040;2023-07-16T12:38:50;6.67;;;3.93;;
14088;SDS011;7120;52.890;6.040;2023-07-16T12:41:15;4.63;;;3.73;;
14088;SDS011;7120;52.890;6.040;2023-07-16T12:43:41;6.13;;;4.07;;
14088;SDS011;7120;52.890;6.040;2023-07-16T12:46:07;4.80;;;3.70;;
14088;SDS011;7120;52.890;6.040;2023-07-16T12:48:32;7.80;;;3.87;;
14088;SDS011;7120;52.890;6.040;2023-07-16T12:50:58;4.43;;;3.50;;
14088;SDS011;7120;52.890;6.040;2023-07-16T12:53:24;4.53;;;3.30;;
14088;SDS011;7120;52.890;6.040;2023-07-16T12:55:50;3.90;;;2.60;;
14088;SDS011;7120;52.890;6.040;2023-07-16T12:58:15;4.53;;;2.43;;
14088;SDS011;7120;52.890;6.040;2023-07-16T13:00:40;4.40;;;2.40;;
14088;SDS011;7120;52.890;6.040;2023-07-16T13:03:06;3.93;;;2.40;;
14088;SDS011;7120;52.890;6.040;2023-07-16T13:05:35;4.50;;;2.40;;
14088;SDS011;7120;52.890;6.040;2023-07-16T13:08:00;4.20;;;2.10;;
14088;SDS011;7120;52.890;6.040;2023-07-16T13:10:26;2.37;;;1.93;;
14088;SDS011;7120;52.890;6.040;2023-07-16T13:12:51;4.07;;;2.00;;
14088;SDS011;7120;52.890;6.040;2023-07-16T13:15:16;2.43;;;1.70;;
14088;SDS011;7120;52.890;6.040;2023-07-16T13:17:42;2.30;;;1.80;;
14088;SDS011;7120;52.890;6.040;2023-07-16T13:20:07;3.80;;;1.83;;
14088;SDS011;7120;52.890;6.040;2023-07-16T13:22:34;5.43;;;2.10;;
14088;SDS011;7120;52.890;6.040;2023-07-16T13:25:00;3.00;;;1.80;;
14088;SDS011;7120;52.890;6.040;2023-07-16T13:27:26;3.10;;;1.47;;
14088;SDS011;7120;52.890;6.040;2023-07-16T13:29:51;4.17;;;1.70;;
14088;SDS011;7120;52.890;6.040;2023-07-16T13:32:17;4.23;;;1.90;;
14088;SDS011;7120;52.890;6.040;2023-07-16T13:34:42;7.53;;;2.20;;
14088;SDS011;7120;52.890;6.040;2023-07-16T13:37:08;7.40;;;2.27;;
14088;SDS011;7120;52.890;6.040;2023-07-16T13:39:34;5.03;;;2.13;;
14088;SDS011;7120;52.890;6.040;2023-07-16T13:41:59;3.90;;;1.67;;
14088;SDS011;7120;52.890;6.040;2023-07-16T13:44:24;6.00;;;1.55;;
14088;SDS011;7120;52.890;6.040;2023-07-16T13:46:50;5.10;;;1.67;;
14088;SDS011;7120;52.890;6.040;2023-07-16T13:49:15;5.45;;;1.92;;
14088;SDS011;7120;52.890;6.040;2023-07-16T13:51:40;3.83;;;1.52;;
14088;SDS011;7120;52.890;6.040;2023-07-16T13:54:06;6.15;;;2.00;;
14088;SDS011;7120;52.890;6.040;2023-07-16T13:56:31;2.75;;;1.65;;
14088;SDS011;7120;52.890;6.040;2023-07-16T13:58:57;2.33;;;1.60;;
14088;SDS011;7120;52.890;6.040;2023-07-16T14:01:22;4.43;;;1.30;;
14088;SDS011;7120;52.890;6.040;2023-07-16T14:03:48;5.82;;;1.80;;
14088;SDS011;7120;52.890;6.040;2023-07-16T14:06:14;3.85;;;1.67;;
14088;SDS011;7120;52.890;6.040;2023-07-16T14:08:39;3.42;;;1.45;;
14088;SDS011;7120;52.890;6.040;2023-07-16T14:11:05;5.65;;;1.73;;
14088;SDS011;7120;52.890;6.040;2023-07-16T14:13:30;3.25;;;1.33;;
14088;SDS011;7120;52.890;6.040;2023-07-16T14:15:55;4.00;;;1.50;;
14088;SDS011;7120;52.890;6.040;2023-07-16T14:18:21;4.32;;;1.65;;
14088;SDS011;7120;52.890;6.040;2023-07-16T14:20:46;2.88;;;1.13;;
14088;SDS011;7120;52.890;6.040;2023-07-16T14:23:12;3.55;;;1.42;;
14088;SDS011;7120;52.890;6.040;2023-07-16T14:25:37;5.68;;;1.45;;
14088;SDS011;7120;52.890;6.040;2023-07-16T14:28:02;2.80;;;1.38;;
14088;SDS011;7120;52.890;6.040;2023-07-16T14:30:28;2.23;;;1.27;;
14088;SDS011;7120;52.890;6.040;2023-07-16T14:32:54;2.33;;;1.00;;
14088;SDS011;7120;52.890;6.040;2023-07-16T14:35:19;3.23;;;1.37;;
14088;SDS011;7120;52.890;6.040;2023-07-16T14:37:45;2.20;;;1.20;;
14088;SDS011;7120;52.890;6.040;2023-07-16T14:40:10;4.03;;;1.30;;
14088;SDS011;7120;52.890;6.040;2023-07-16T14:42:36;2.67;;;1.30;;
14088;SDS011;7120;52.890;6.040;2023-07-16T14:45:01;3.03;;;1.60;;
14088;SDS011;7120;52.890;6.040;2023-07-16T14:47:29;3.27;;;1.50;;
14088;SDS011;7120;52.890;6.040;2023-07-16T14:49:55;4.53;;;1.63;;
14088;SDS011;7120;52.890;6.040;2023-07-16T14:52:20;3.65;;;1.48;;
14088;SDS011;7120;52.890;6.040;2023-07-16T14:54:45;2.17;;;1.40;;
14088;SDS011;7120;52.890;6.040;2023-07-16T14:57:11;3.67;;;1.47;;
14088;SDS011;7120;52.890;6.040;2023-07-16T14:59:36;2.87;;;1.30;;
14088;SDS011;7120;52.890;6.040;2023-07-16T15:02:03;4.40;;;1.57;;
14088;SDS011;7120;52.890;6.040;2023-07-16T15:04:29;4.80;;;1.80;;
14088;SDS011;7120;52.890;6.040;2023-07-16T15:06:55;4.20;;;1.57;;